Time;durP1;ratioP1;P1;durP2;ratioP2;P2;SDS_P1;SDS_P2;PMS_P1;PMS_P2;Temp;Humidity;BMP_temperature;BMP_pressure;BME280_temperature;BME280_humidity;BME280_pressure;Samples;Min_cycle;Max_cycle;Signal;HPM_P1;HPM_P2
2021/12/31 00:00:55;;;;;;;1.00;0.70;;;13.30;99.90;;;;;;4161905;28;20239;-82
2021/12/31 00:02:58;;;;;;;0.60;0.60;;;13.30;99.90;;;;;;4165183;28;20261;-81
2021/12/31 00:05:00;;;;;;;1.30;0.70;;;13.30;99.90;;;;;;4167060;28;20301;-82
2021/12/31 00:07:01;;;;;;;1.80;0.60;;;13.40;99.90;;;;;;4164871;28;20216;-81
2021/12/31 00:09:04;;;;;;;1.90;0.70;;;13.30;99.90;;;;;;4165289;28;20221;-80
2021/12/31 00:11:05;;;;;;;1.47;0.80;;;13.30;99.90;;;;;;4164529;28;20243;-81
2021/12/31 00:13:07;;;;;;;1.43;0.70;;;13.40;99.90;;;;;;4164066;28;20586;-82
2021/12/31 00:15:10;;;;;;;1.73;0.70;;;13.30;99.90;;;;;;4167300;28;20234;-81
2021/12/31 00:17:11;;;;;;;1.10;0.50;;;13.30;99.90;;;;;;4172198;28;20210;-82
2021/12/31 00:19:15;;;;;;;0.70;0.60;;;13.30;99.90;;;;;;4171001;28;20271;-80
2021/12/31 00:21:17;;;;;;;1.00;0.60;;;13.30;99.90;;;;;;4167953;28;20306;-82
2021/12/31 00:23:23;;;;;;;1.43;0.70;;;13.30;99.90;;;;;;4172196;28;20225;-81
2021/12/31 00:25:26;;;;;;;0.40;0.40;;;13.30;99.90;;;;;;4169518;28;20223;-82
2021/12/31 00:27:28;;;;;;;0.77;0.60;;;13.30;99.90;;;;;;4171642;28;20264;-81
2021/12/31 00:29:29;;;;;;;0.80;0.60;;;13.30;99.90;;;;;;4169186;28;20218;-80
2021/12/31 00:31:31;;;;;;;0.80;0.73;;;13.30;99.90;;;;;;4169418;28;20438;-82
2021/12/31 00:33:33;;;;;;;0.73;0.50;;;13.30;99.90;;;;;;4164316;28;20292;-82
2021/12/31 00:35:38;;;;;;;1.00;0.50;;;13.30;99.90;;;;;;4163483;28;20285;-82
2021/12/31 00:37:40;;;;;;;2.33;0.70;;;13.30;99.90;;;;;;4166171;28;20669;-83
2021/12/31 00:39:42;;;;;;;0.87;0.60;;;13.30;99.90;;;;;;4161505;28;20710;-81
2021/12/31 00:41:44;;;;;;;0.77;0.73;;;13.30;99.90;;;;;;4163836;28;20380;-83
2021/12/31 00:43:46;;;;;;;1.50;0.90;;;13.30;99.90;;;;;;4164311;28;20269;-83
2021/12/31 00:45:48;;;;;;;1.07;0.57;;;13.30;99.90;;;;;;4161237;28;20211;-82
2021/12/31 00:47:50;;;;;;;1.57;1.00;;;13.30;99.90;;;;;;4163658;28;20208;-82
2021/12/31 00:49:51;;;;;;;1.50;0.73;;;13.30;99.90;;;;;;4165210;28;20265;-83
2021/12/31 00:51:54;;;;;;;0.70;0.70;;;13.40;99.90;;;;;;4164102;28;20235;-82
2021/12/31 00:53:57;;;;;;;0.70;0.70;;;13.30;99.90;;;;;;4164928;28;20332;-82
2021/12/31 00:55:58;;;;;;;0.67;0.63;;;13.30;99.90;;;;;;4164953;28;20231;-82
2021/12/31 00:58:00;;;;;;;1.17;0.63;;;13.30;99.90;;;;;;4166611;28;20258;-83
2021/12/31 01:00:02;;;;;;;1.63;0.80;;;13.30;99.90;;;;;;4166454;28;20215;-83
2021/12/31 01:02:06;;;;;;;0.70;0.60;;;13.30;99.90;;;;;;4165615;28;20222;-83
2021/12/31 01:04:07;;;;;;;0.83;0.60;;;13.30;99.90;;;;;;4165100;28;20218;-83
2021/12/31 01:06:09;;;;;;;0.97;0.80;;;13.30;99.90;;;;;;4164439;28;20660;-82
2021/12/31 01:08:12;;;;;;;0.70;0.63;;;13.30;99.90;;;;;;4167762;28;20219;-83
2021/12/31 01:10:17;;;;;;;0.90;0.70;;;13.30;99.90;;;;;;4167791;28;20211;-83
2021/12/31 01:12:19;;;;;;;0.73;0.70;;;13.30;99.90;;;;;;4167682;28;20235;-83
2021/12/31 01:14:27;;;;;;;0.83;0.60;;;13.60;99.90;;;;;;4168390;28;20208;-82
2021/12/31 01:16:38;;;;;;;1.30;0.63;;;13.30;99.90;;;;;;4168553;28;20273;-82
2021/12/31 01:20:55;;;;;;;0.70;0.70;;;13.30;99.90;;;;;;4125262;28;20231;-82
2021/12/31 01:22:57;;;;;;;0.90;0.70;;;13.40;99.90;;;;;;4165859;28;20200;-83
2021/12/31 01:25:01;;;;;;;1.20;1.00;;;13.30;99.90;;;;;;4165242;28;20210;-83
2021/12/31 01:27:03;;;;;;;2.10;0.90;;;13.40;99.90;;;;;;4165040;28;20297;-83
2021/12/31 01:29:04;;;;;;;1.00;0.90;;;13.40;99.90;;;;;;4166103;28;20227;-83
2021/12/31 01:31:06;;;;;;;2.23;1.00;;;13.40;99.90;;;;;;4166063;28;20231;-83
2021/12/31 01:33:08;;;;;;;1.67;0.97;;;13.40;99.90;;;;;;4164574;28;20215;-83
2021/12/31 01:35:10;;;;;;;1.47;1.23;;;13.40;99.90;;;;;;4163822;28;20218;-82
2021/12/31 01:37:12;;;;;;;3.80;0.90;;;13.40;99.90;;;;;;4165649;28;20265;-82
2021/12/31 01:39:14;;;;;;;1.90;1.00;;;13.50;99.90;;;;;;4165295;28;20211;-82
2021/12/31 01:41:17;;;;;;;0.97;0.70;;;13.30;99.90;;;;;;4159608;28;20320;-81
2021/12/31 01:43:19;;;;;;;1.50;0.70;;;13.30;99.90;;;;;;4164118;28;20264;-81
2021/12/31 01:45:23;;;;;;;4.97;0.87;;;13.30;99.90;;;;;;4165754;28;20558;-80
2021/12/31 01:47:34;;;;;;;1.23;0.80;;;13.30;99.90;;;;;;4150033;28;20222;-80
2021/12/31 01:49:38;;;;;;;1.53;0.87;;;13.30;99.90;;;;;;4162727;28;20268;-80
2021/12/31 01:51:40;;;;;;;1.30;0.77;;;13.30;99.90;;;;;;4158143;28;20223;-81
2021/12/31 01:53:44;;;;;;;0.80;0.60;;;13.30;99.90;;;;;;4156460;28;20478;-80
2021/12/31 01:55:46;;;;;;;1.93;0.80;;;13.30;99.90;;;;;;4161001;28;20220;-80
2021/12/31 01:57:50;;;;;;;0.67;0.60;;;13.30;99.90;;;;;;4148606;28;20218;-80
2021/12/31 01:59:52;;;;;;;3.17;0.97;;;13.30;99.90;;;;;;4163276;28;20214;-80
2021/12/31 02:01:55;;;;;;;1.87;0.60;;;13.20;99.90;;;;;;4164173;28;20273;-80
2021/12/31 02:03:57;;;;;;;1.40;0.80;;;13.30;99.90;;;;;;4166300;28;20211;-80
2021/12/31 02:05:59;;;;;;;1.67;0.73;;;13.30;99.90;;;;;;4163432;28;20212;-83
2021/12/31 02:08:01;;;;;;;0.67;0.60;;;13.20;99.90;;;;;;4167614;28;20901;-80
2021/12/31 02:10:02;;;;;;;1.17;0.60;;;13.20;99.90;;;;;;4175155;28;20227;-82
2021/12/31 02:12:05;;;;;;;0.80;0.70;;;13.20;99.90;;;;;;4174466;28;20281;-81
2021/12/31 02:14:09;;;;;;;1.90;0.60;;;13.20;99.90;;;;;;4167343;28;20211;-82
2021/12/31 02:16:11;;;;;;;1.53;0.70;;;13.20;99.90;;;;;;4161670;28;20234;-81
2021/12/31 02:18:13;;;;;;;1.33;0.53;;;13.10;99.90;;;;;;4149648;28;20626;-80
2021/12/31 02:20:17;;;;;;;1.00;0.90;;;13.10;99.90;;;;;;4149181;28;20564;-80
2021/12/31 02:22:25;;;;;;;2.70;0.80;;;13.10;99.90;;;;;;4149095;28;20302;-80
2021/12/31 02:24:27;;;;;;;1.03;0.70;;;13.00;99.90;;;;;;4160817;28;20210;-82
2021/12/31 02:26:29;;;;;;;2.27;0.70;;;13.00;99.90;;;;;;4159964;28;20267;-81
2021/12/31 02:28:31;;;;;;;1.33;0.60;;;13.00;99.90;;;;;;4162816;28;20208;-80
2021/12/31 02:30:33;;;;;;;1.10;0.67;;;13.00;99.90;;;;;;4163833;28;20215;-82
2021/12/31 02:32:34;;;;;;;1.33;0.70;;;13.00;99.90;;;;;;4164803;28;20692;-81
2021/12/31 02:34:36;;;;;;;1.57;0.80;;;12.90;99.90;;;;;;4163778;28;20618;-81
2021/12/31 02:36:39;;;;;;;2.23;0.77;;;12.90;99.90;;;;;;4152247;28;20304;-81
2021/12/31 02:38:41;;;;;;;0.90;0.70;;;12.90;99.90;;;;;;4161473;28;20216;-81
2021/12/31 02:40:43;;;;;;;2.33;0.90;;;12.90;99.90;;;;;;4163827;28;20210;-82
2021/12/31 02:42:45;;;;;;;2.70;1.00;;;12.90;99.90;;;;;;4163777;28;20579;-81
2021/12/31 02:44:49;;;;;;;1.07;0.80;;;12.90;99.90;;;;;;4161480;28;20679;-80
2021/12/31 02:46:51;;;;;;;3.33;1.03;;;12.90;99.90;;;;;;4180125;28;20616;-80
2021/12/31 02:48:57;;;;;;;1.47;1.10;;;12.90;99.90;;;;;;4160257;28;20203;-81
2021/12/31 02:51:01;;;;;;;1.73;1.17;;;12.90;99.90;;;;;;4164675;28;20235;-81
2021/12/31 02:53:05;;;;;;;1.77;1.10;;;12.90;99.90;;;;;;4158074;28;20211;-81
2021/12/31 02:55:09;;;;;;;1.80;1.10;;;12.80;99.90;;;;;;4167583;28;20588;-81
2021/12/31 02:57:13;;;;;;;2.20;1.10;;;12.80;99.90;;;;;;4164851;28;20235;-80
2021/12/31 02:59:14;;;;;;;1.43;1.23;;;12.80;99.90;;;;;;4164343;28;20211;-81
2021/12/31 03:01:16;;;;;;;1.10;0.83;;;12.80;99.90;;;;;;4159572;28;20252;-81
2021/12/31 03:03:20;;;;;;;2.07;1.20;;;12.70;99.90;;;;;;4164936;28;20215;-81
2021/12/31 03:05:23;;;;;;;2.27;1.20;;;12.70;99.90;;;;;;4162109;28;20652;-80
2021/12/31 03:07:25;;;;;;;1.53;1.10;;;12.70;99.90;;;;;;4151115;28;20203;-79
2021/12/31 03:09:29;;;;;;;2.23;1.20;;;12.70;99.90;;;;;;4163420;28;20202;-81
2021/12/31 03:11:32;;;;;;;1.60;1.30;;;12.70;99.90;;;;;;4163030;28;20219;-81
2021/12/31 03:13:35;;;;;;;1.40;1.20;;;12.70;99.90;;;;;;4163304;28;20272;-80
2021/12/31 03:15:38;;;;;;;1.70;1.10;;;12.70;99.90;;;;;;4155602;28;20273;-82
2021/12/31 03:17:41;;;;;;;2.00;1.13;;;12.70;99.90;;;;;;4162186;28;20654;-80
2021/12/31 03:19:43;;;;;;;3.83;1.43;;;12.70;99.90;;;;;;4159312;28;20253;-81
2021/12/31 03:21:45;;;;;;;3.43;1.43;;;12.70;99.90;;;;;;4164484;28;20234;-81
2021/12/31 03:23:48;;;;;;;1.40;1.20;;;12.70;99.90;;;;;;4164300;28;20386;-80
2021/12/31 03:25:51;;;;;;;1.50;1.30;;;12.70;99.90;;;;;;4163400;28;20653;-81
2021/12/31 03:27:52;;;;;;;1.67;1.00;;;12.70;99.90;;;;;;4172474;28;20234;-80
2021/12/31 03:29:54;;;;;;;2.40;1.20;;;12.70;99.90;;;;;;4165810;28;20721;-79
2021/12/31 03:31:56;;;;;;;2.60;1.50;;;12.70;99.90;;;;;;4163502;28;20222;-80
2021/12/31 03:33:58;;;;;;;4.40;1.30;;;12.70;99.90;;;;;;4157689;28;20218;-81
2021/12/31 03:35:59;;;;;;;1.50;1.20;;;12.70;99.90;;;;;;4164401;28;20289;-80
2021/12/31 03:38:01;;;;;;;1.83;1.00;;;12.70;99.90;;;;;;4163260;28;20211;-80
2021/12/31 03:40:03;;;;;;;3.03;1.10;;;12.80;99.90;;;;;;4161106;28;20211;-80
2021/12/31 03:42:07;;;;;;;1.67;1.20;;;12.80;99.90;;;;;;4162440;28;20235;-81
2021/12/31 03:44:08;;;;;;;1.90;1.20;;;12.80;99.90;;;;;;4163353;28;20297;-80
2021/12/31 03:46:10;;;;;;;1.23;0.87;;;12.80;99.90;;;;;;4163137;28;20272;-81
2021/12/31 03:48:12;;;;;;;1.83;0.90;;;12.80;99.90;;;;;;4164157;28;20222;-81
2021/12/31 03:50:14;;;;;;;1.70;1.00;;;12.80;99.90;;;;;;4159888;28;20208;-79
2021/12/31 03:52:16;;;;;;;1.47;0.97;;;12.80;99.90;;;;;;4161389;28;20269;-80
2021/12/31 03:54:17;;;;;;;0.87;0.80;;;12.80;99.90;;;;;;4164873;28;20215;-80
2021/12/31 03:56:21;;;;;;;2.10;1.10;;;12.80;99.90;;;;;;4173182;28;20655;-80
2021/12/31 03:58:24;;;;;;;2.30;0.80;;;12.80;99.90;;;;;;4162586;28;20215;-80
2021/12/31 04:00:28;;;;;;;3.00;1.00;;;12.80;99.90;;;;;;4159194;28;20656;-81
2021/12/31 04:02:30;;;;;;;1.40;0.80;;;12.80;99.90;;;;;;4147403;28;20840;-80
2021/12/31 04:04:32;;;;;;;1.60;0.90;;;12.90;99.90;;;;;;4162151;28;20214;-79
2021/12/31 04:06:34;;;;;;;1.80;0.97;;;12.90;99.90;;;;;;4151198;28;20262;-80
2021/12/31 04:08:35;;;;;;;0.90;0.73;;;12.90;99.90;;;;;;4161086;28;20203;-80
2021/12/31 04:10:38;;;;;;;1.60;1.00;;;12.90;99.90;;;;;;4147512;28;20262;-80
2021/12/31 04:12:39;;;;;;;2.23;1.13;;;12.90;99.90;;;;;;4155336;28;20214;-80
2021/12/31 04:14:42;;;;;;;2.00;1.20;;;12.90;99.90;;;;;;4158748;28;20732;-80
2021/12/31 04:16:44;;;;;;;1.93;1.10;;;12.80;99.90;;;;;;4153069;28;20699;-79
2021/12/31 04:18:46;;;;;;;2.80;1.30;;;12.80;99.90;;;;;;4162720;28;20218;-80
2021/12/31 04:20:49;;;;;;;1.60;1.20;;;12.80;99.90;;;;;;4146426;28;20212;-80
2021/12/31 04:22:55;;;;;;;2.83;0.90;;;12.70;99.90;;;;;;4148794;28;20219;-79
2021/12/31 04:24:57;;;;;;;2.07;1.27;;;12.70;99.90;;;;;;4165263;28;20590;-79
2021/12/31 04:26:58;;;;;;;1.57;0.90;;;12.70;99.90;;;;;;4169672;28;20722;-79
2021/12/31 04:29:00;;;;;;;1.83;1.20;;;12.60;99.90;;;;;;4175097;28;20214;-81
2021/12/31 04:31:04;;;;;;;2.33;1.20;;;12.60;99.90;;;;;;4174665;28;20234;-82
2021/12/31 04:33:06;;;;;;;2.67;1.03;;;12.50;99.90;;;;;;4173209;28;20217;-81
2021/12/31 04:35:10;;;;;;;2.37;1.20;;;12.50;99.90;;;;;;4173729;28;20194;-81
2021/12/31 04:37:11;;;;;;;0.87;0.80;;;12.50;99.90;;;;;;4164457;28;20699;-83
2021/12/31 04:39:13;;;;;;;2.07;1.40;;;12.50;99.90;;;;;;4163842;28;20207;-82
2021/12/31 04:41:15;;;;;;;2.30;1.40;;;12.50;99.90;;;;;;4161860;28;20242;-83
2021/12/31 04:43:17;;;;;;;2.70;1.30;;;12.50;99.90;;;;;;4163948;28;20694;-83
2021/12/31 04:45:19;;;;;;;1.70;1.43;;;12.40;99.90;;;;;;4162913;28;20214;-82
2021/12/31 04:47:21;;;;;;;1.57;1.10;;;12.60;99.90;;;;;;4158020;28;20233;-82
2021/12/31 04:49:23;;;;;;;1.73;1.30;;;12.50;99.90;;;;;;4158718;28;20586;-83
2021/12/31 04:51:25;;;;;;;1.10;1.00;;;12.50;99.90;;;;;;4177184;28;20568;-83
2021/12/31 04:53:27;;;;;;;1.47;1.00;;;12.50;99.90;;;;;;4169279;28;20210;-83
2021/12/31 04:55:28;;;;;;;1.07;0.70;;;12.50;99.90;;;;;;4161651;28;20214;-82
2021/12/31 04:57:30;;;;;;;1.10;0.60;;;12.50;99.90;;;;;;4148765;28;20293;-83
2021/12/31 04:59:32;;;;;;;1.13;0.70;;;12.50;99.90;;;;;;4159004;28;20207;-83
2021/12/31 05:01:34;;;;;;;2.23;0.70;;;12.50;99.90;;;;;;4164770;28;20233;-83
2021/12/31 05:03:37;;;;;;;0.60;0.57;;;12.50;99.90;;;;;;4166375;28;20240;-83
2021/12/31 05:05:39;;;;;;;0.97;0.70;;;12.50;99.90;;;;;;4161717;28;20207;-83
2021/12/31 05:07:41;;;;;;;0.50;0.50;;;12.50;99.90;;;;;;4158195;28;20214;-82
2021/12/31 05:09:42;;;;;;;2.57;0.53;;;12.50;99.90;;;;;;4166905;28;20290;-83
2021/12/31 05:11:45;;;;;;;0.70;0.50;;;12.50;99.90;;;;;;4166370;28;20237;-83
2021/12/31 05:13:47;;;;;;;2.13;0.60;;;12.50;99.90;;;;;;4165829;28;20980;-83
2021/12/31 05:15:51;;;;;;;2.37;0.50;;;12.50;99.90;;;;;;4163279;28;20269;-83
2021/12/31 05:17:53;;;;;;;1.43;0.57;;;12.50;99.90;;;;;;4164399;28;20527;-83
2021/12/31 05:19:56;;;;;;;1.50;0.63;;;12.50;99.90;;;;;;4166304;28;20305;-83
2021/12/31 05:21:57;;;;;;;1.33;0.60;;;12.60;99.90;;;;;;4158732;28;20235;-82
2021/12/31 05:24:00;;;;;;;0.87;0.60;;;12.90;99.90;;;;;;4163570;28;20264;-82
2021/12/31 05:26:02;;;;;;;0.57;0.50;;;12.60;99.90;;;;;;4165975;28;20214;-82
2021/12/31 05:28:04;;;;;;;0.57;0.57;;;12.60;99.90;;;;;;4165020;28;20268;-82
2021/12/31 05:30:07;;;;;;;0.60;0.40;;;12.60;99.90;;;;;;4161474;28;20230;-83
2021/12/31 05:32:09;;;;;;;0.73;0.60;;;12.60;99.90;;;;;;4152802;28;20239;-82
2021/12/31 05:34:10;;;;;;;0.80;0.57;;;12.60;99.90;;;;;;4165748;28;20221;-83
2021/12/31 05:36:13;;;;;;;0.70;0.60;;;12.60;99.90;;;;;;4165067;28;20221;-83
2021/12/31 05:38:15;;;;;;;0.80;0.40;;;12.60;99.90;;;;;;4165647;28;20261;-83
2021/12/31 05:40:17;;;;;;;0.40;0.40;;;12.60;99.90;;;;;;4155472;28;20274;-83
2021/12/31 05:42:18;;;;;;;0.70;0.60;;;12.60;99.90;;;;;;4150177;28;20243;-83
2021/12/31 05:44:20;;;;;;;1.07;0.40;;;12.60;99.90;;;;;;4160229;28;20203;-82
2021/12/31 05:46:22;;;;;;;0.90;0.47;;;12.60;99.90;;;;;;4164808;28;20211;-82
2021/12/31 05:48:24;;;;;;;1.47;0.57;;;12.60;99.90;;;;;;4165130;28;20264;-82
2021/12/31 05:50:28;;;;;;;0.50;0.50;;;12.60;99.90;;;;;;4164892;28;20574;-83
2021/12/31 05:52:32;;;;;;;2.20;0.70;;;12.60;99.90;;;;;;4165857;28;20254;-82
2021/12/31 05:54:33;;;;;;;0.73;0.73;;;12.60;99.90;;;;;;4166820;28;20211;-83
2021/12/31 05:56:35;;;;;;;0.93;0.50;;;12.60;99.90;;;;;;4163122;28;20857;-83
2021/12/31 05:58:37;;;;;;;0.83;0.57;;;12.60;99.90;;;;;;4164970;28;20238;-82
2021/12/31 06:00:38;;;;;;;1.10;0.60;;;12.60;99.90;;;;;;4165033;28;20237;-82
2021/12/31 06:02:40;;;;;;;1.40;0.60;;;12.70;99.90;;;;;;4167249;28;20514;-82
2021/12/31 06:04:42;;;;;;;1.47;0.60;;;12.70;99.90;;;;;;4164825;28;20273;-82
2021/12/31 06:06:44;;;;;;;1.73;0.63;;;12.70;99.90;;;;;;4159530;28;20316;-82
2021/12/31 06:08:47;;;;;;;0.70;0.60;;;12.80;99.90;;;;;;4158619;28;20203;-83
2021/12/31 06:10:49;;;;;;;0.93;0.70;;;12.70;99.90;;;;;;4166256;28;20203;-82
2021/12/31 06:12:51;;;;;;;1.63;0.60;;;12.70;99.90;;;;;;4163281;28;20218;-82
2021/12/31 06:14:54;;;;;;;0.63;0.50;;;12.70;99.90;;;;;;4164669;28;20211;-82
2021/12/31 06:17:02;;;;;;;0.70;0.60;;;12.60;99.90;;;;;;4166176;28;20250;-82
2021/12/31 06:19:05;;;;;;;1.37;0.80;;;12.70;99.90;;;;;;4159615;28;20206;-83
2021/12/31 06:21:08;;;;;;;4.23;0.70;;;12.70;99.90;;;;;;4166611;28;20312;-82
2021/12/31 06:23:10;;;;;;;0.70;0.60;;;12.70;99.90;;;;;;4156080;28;20212;-79
2021/12/31 06:25:13;;;;;;;1.80;0.70;;;12.80;99.90;;;;;;4149877;28;20223;-83
2021/12/31 06:27:14;;;;;;;1.47;0.80;;;12.70;99.90;;;;;;4171069;28;20223;-80
2021/12/31 06:29:16;;;;;;;1.53;0.70;;;12.80;99.90;;;;;;4167108;28;20203;-81
2021/12/31 06:31:18;;;;;;;1.20;0.70;;;12.80;99.90;;;;;;4163070;28;20231;-81
2021/12/31 06:33:20;;;;;;;1.53;0.80;;;12.80;99.90;;;;;;4154755;28;20203;-81
2021/12/31 06:35:22;;;;;;;2.17;1.00;;;12.80;99.90;;;;;;4164709;28;20704;-82
2021/12/31 06:37:23;;;;;;;1.53;0.70;;;12.80;99.90;;;;;;4156173;28;20271;-80
2021/12/31 06:39:26;;;;;;;0.70;0.60;;;12.80;99.90;;;;;;4161079;28;20738;-79
2021/12/31 06:41:29;;;;;;;2.17;1.00;;;12.80;99.90;;;;;;4160591;28;20235;-81
2021/12/31 06:43:32;;;;;;;1.67;1.00;;;12.80;99.90;;;;;;4152807;28;20285;-80
2021/12/31 06:45:33;;;;;;;1.70;0.83;;;12.80;99.90;;;;;;4164252;28;20218;-79
2021/12/31 06:47:35;;;;;;;2.43;1.00;;;12.80;99.90;;;;;;4163851;28;20215;-80
2021/12/31 06:49:37;;;;;;;1.43;0.97;;;12.80;99.90;;;;;;4153370;28;20211;-80
2021/12/31 06:51:39;;;;;;;1.23;0.70;;;12.80;99.90;;;;;;4163698;28;20239;-80
2021/12/31 06:53:41;;;;;;;2.27;0.90;;;12.80;99.90;;;;;;4164795;28;20211;-80
2021/12/31 06:55:43;;;;;;;0.87;0.70;;;12.80;99.90;;;;;;4163388;28;20711;-81
2021/12/31 06:57:49;;;;;;;2.47;1.00;;;12.90;99.90;;;;;;4164388;28;20251;-80
2021/12/31 06:59:51;;;;;;;1.03;0.70;;;12.90;99.90;;;;;;4158400;28;20664;-80
2021/12/31 07:01:53;;;;;;;2.33;0.90;;;12.90;99.90;;;;;;4164135;28;20226;-81
2021/12/31 07:03:55;;;;;;;1.63;0.90;;;12.90;99.90;;;;;;4164664;28;20690;-81
2021/12/31 07:05:56;;;;;;;1.43;0.70;;;12.90;99.90;;;;;;4155499;28;20208;-83
2021/12/31 07:07:58;;;;;;;2.23;0.80;;;13.00;99.90;;;;;;4147196;28;20208;-81
2021/12/31 07:10:00;;;;;;;0.83;0.80;;;13.00;99.90;;;;;;4160419;28;20210;-83
2021/12/31 07:12:01;;;;;;;1.10;0.80;;;13.00;99.90;;;;;;4164242;28;20238;-83
2021/12/31 07:14:04;;;;;;;2.13;0.90;;;13.00;99.90;;;;;;4163435;28;20288;-82
2021/12/31 07:16:06;;;;;;;1.43;0.70;;;13.00;99.90;;;;;;4156124;28;20208;-83
2021/12/31 07:18:08;;;;;;;1.57;0.80;;;13.00;99.90;;;;;;4164422;28;20580;-83
2021/12/31 07:20:10;;;;;;;1.33;0.90;;;13.00;99.90;;;;;;4162989;28;20223;-83
2021/12/31 07:22:12;;;;;;;1.37;0.93;;;13.00;99.90;;;;;;4164222;28;20615;-83
2021/12/31 07:24:14;;;;;;;1.97;0.90;;;13.00;99.90;;;;;;4165944;28;20215;-83
2021/12/31 07:26:15;;;;;;;1.70;0.80;;;13.00;99.90;;;;;;4167983;28;20241;-82
2021/12/31 07:28:17;;;;;;;1.00;0.73;;;13.00;99.90;;;;;;4167217;28;20215;-82
2021/12/31 07:30:20;;;;;;;1.10;1.00;;;13.00;99.90;;;;;;4166879;28;20260;-82
2021/12/31 07:32:22;;;;;;;1.23;0.80;;;13.00;99.90;;;;;;4166898;28;20231;-83
2021/12/31 07:34:24;;;;;;;1.70;0.80;;;13.00;99.90;;;;;;4160274;28;20214;-83
2021/12/31 07:36:27;;;;;;;2.07;1.03;;;13.00;99.90;;;;;;4163740;28;20211;-82
2021/12/31 07:38:34;;;;;;;2.23;0.80;;;13.00;99.90;;;;;;4165262;28;20233;-83
2021/12/31 07:40:39;;;;;;;1.97;1.13;;;12.90;99.90;;;;;;4158905;28;20207;-82
2021/12/31 07:42:42;;;;;;;0.90;0.83;;;12.90;99.90;;;;;;4148687;28;20239;-80
2021/12/31 07:44:44;;;;;;;1.30;0.90;;;12.90;99.90;;;;;;4154581;28;20261;-84
2021/12/31 07:46:48;;;;;;;1.27;1.00;;;12.90;99.90;;;;;;4163355;28;20211;-83
2021/12/31 07:48:50;;;;;;;2.57;1.00;;;12.90;99.90;;;;;;4163114;28;20206;-83
2021/12/31 07:50:55;;;;;;;1.73;0.70;;;12.90;99.90;;;;;;4160085;28;20239;-80
2021/12/31 07:52:57;;;;;;;2.70;1.17;;;12.90;99.90;;;;;;4162024;28;20207;-80
2021/12/31 07:54:58;;;;;;;2.07;1.03;;;12.90;99.90;;;;;;4162389;28;20660;-79
2021/12/31 07:57:00;;;;;;;2.13;0.87;;;12.90;99.90;;;;;;4158743;28;20269;-81
2021/12/31 07:59:02;;;;;;;3.17;1.07;;;12.80;99.90;;;;;;4161772;28;20238;-80
2021/12/31 08:01:04;;;;;;;4.10;0.80;;;12.80;99.90;;;;;;4161108;28;20671;-79
2021/12/31 08:03:07;;;;;;;1.00;0.80;;;12.90;99.90;;;;;;4162256;28;20210;-79
2021/12/31 08:05:09;;;;;;;1.57;0.80;;;12.80;99.90;;;;;;4162346;28;20207;-83
2021/12/31 08:07:11;;;;;;;2.67;1.10;;;12.90;99.90;;;;;;4161386;28;20672;-80
2021/12/31 08:09:13;;;;;;;1.37;0.80;;;12.90;99.90;;;;;;4155527;28;20650;-81
2021/12/31 08:11:14;;;;;;;3.03;0.97;;;12.90;99.90;;;;;;4159501;28;20276;-82
2021/12/31 08:13:16;;;;;;;2.13;1.00;;;12.90;99.90;;;;;;4155976;28;20204;-79
2021/12/31 08:15:18;;;;;;;1.33;0.70;;;12.90;99.90;;;;;;4158222;28;20241;-79
2021/12/31 08:17:19;;;;;;;2.23;0.80;;;12.90;99.90;;;;;;4161906;28;20214;-80
2021/12/31 08:19:23;;;;;;;1.90;0.90;;;12.90;99.90;;;;;;4167355;28;20238;-80
2021/12/31 08:21:24;;;;;;;1.37;0.70;;;12.90;99.90;;;;;;4163438;28;20223;-80
2021/12/31 08:23:26;;;;;;;1.50;0.80;;;12.90;99.90;;;;;;4162777;28;20210;-82
2021/12/31 08:25:28;;;;;;;1.10;0.90;;;12.90;99.90;;;;;;4167338;28;20207;-83
2021/12/31 08:27:29;;;;;;;1.90;0.80;;;12.90;99.90;;;;;;4164269;28;20203;-82
2021/12/31 08:29:31;;;;;;;1.43;0.80;;;12.90;99.90;;;;;;4165417;28;20231;-82
2021/12/31 08:31:33;;;;;;;3.13;0.80;;;12.90;99.90;;;;;;4161505;28;20239;-82
2021/12/31 08:33:35;;;;;;;2.17;0.90;;;13.00;99.90;;;;;;4162269;28;20207;-83
2021/12/31 08:35:38;;;;;;;1.50;0.97;;;13.00;99.90;;;;;;4164624;28;20215;-83
2021/12/31 08:37:39;;;;;;;2.33;0.90;;;13.00;99.90;;;;;;4162413;28;20207;-81
2021/12/31 08:39:41;;;;;;;1.70;1.20;;;13.00;99.90;;;;;;4159508;28;20210;-82
2021/12/31 08:41:43;;;;;;;1.93;1.03;;;13.00;99.90;;;;;;4162755;28;20301;-82
2021/12/31 08:43:44;;;;;;;1.80;1.10;;;13.10;99.90;;;;;;4162247;28;20270;-82
2021/12/31 08:45:46;;;;;;;1.37;0.90;;;13.10;99.90;;;;;;4164165;28;20203;-82
2021/12/31 08:47:48;;;;;;;2.23;1.00;;;13.10;99.90;;;;;;4165506;28;20627;-82
2021/12/31 08:49:49;;;;;;;1.67;0.90;;;13.10;99.90;;;;;;4161177;28;20266;-82
2021/12/31 08:51:53;;;;;;;4.07;1.00;;;13.10;99.90;;;;;;4166510;28;20234;-82
2021/12/31 08:53:55;;;;;;;2.47;1.17;;;13.20;99.90;;;;;;4159984;28;20610;-83
2021/12/31 08:55:57;;;;;;;1.80;0.90;;;13.20;99.90;;;;;;4162429;28;20278;-82
2021/12/31 08:57:58;;;;;;;2.00;0.90;;;13.20;99.90;;;;;;4162213;28;20211;-82
2021/12/31 09:00:00;;;;;;;3.00;0.90;;;13.30;99.90;;;;;;4167222;28;20227;-82
2021/12/31 09:02:02;;;;;;;3.57;1.07;;;13.20;99.90;;;;;;4164230;28;20235;-82
2021/12/31 09:04:04;;;;;;;2.03;1.00;;;13.20;99.90;;;;;;4162423;28;20216;-83
2021/12/31 09:06:07;;;;;;;1.37;0.87;;;13.30;99.90;;;;;;4160100;28;20950;-83
2021/12/31 09:08:10;;;;;;;1.70;0.90;;;13.30;99.90;;;;;;4165007;28;20211;-82
2021/12/31 09:10:12;;;;;;;1.73;1.00;;;13.30;99.90;;;;;;4165601;28;20241;-83
2021/12/31 09:12:13;;;;;;;1.73;0.80;;;13.30;99.90;;;;;;4166479;28;20270;-83
2021/12/31 09:14:15;;;;;;;2.17;0.93;;;13.30;99.90;;;;;;4162054;28;20211;-82
2021/12/31 09:16:17;;;;;;;2.67;1.07;;;13.40;99.90;;;;;;4165658;28;20207;-82
2021/12/31 09:18:19;;;;;;;1.83;0.80;;;13.40;99.90;;;;;;4164801;28;20261;-80
2021/12/31 09:20:21;;;;;;;3.90;1.10;;;13.40;99.90;;;;;;4162691;28;20653;-82
2021/12/31 09:22:23;;;;;;;1.60;1.00;;;13.50;99.90;;;;;;4160507;28;20231;-80
2021/12/31 09:24:26;;;;;;;2.10;0.90;;;13.40;99.90;;;;;;4162557;28;20215;-79
2021/12/31 09:26:28;;;;;;;2.00;0.80;;;13.40;99.90;;;;;;4163757;28;20585;-79
2021/12/31 09:28:29;;;;;;;1.30;0.80;;;13.40;99.90;;;;;;4165274;28;20687;-80
2021/12/31 09:30:31;;;;;;;3.17;0.90;;;13.50;99.90;;;;;;4166799;28;20364;-79
2021/12/31 09:32:33;;;;;;;2.17;0.90;;;13.40;99.90;;;;;;4163062;28;20207;-78
2021/12/31 09:34:35;;;;;;;1.20;0.90;;;13.40;99.90;;;;;;4163908;28;20239;-80
2021/12/31 09:36:37;;;;;;;1.10;0.90;;;13.40;99.90;;;;;;4162084;28;20212;-77
2021/12/31 09:38:39;;;;;;;1.23;0.87;;;13.40;99.90;;;;;;4151039;28;20224;-77
2021/12/31 09:40:42;;;;;;;2.70;0.90;;;13.40;99.90;;;;;;4158741;28;20211;-80
2021/12/31 09:42:47;;;;;;;4.13;0.90;;;13.40;99.90;;;;;;4153217;28;20275;-77
2021/12/31 09:44:49;;;;;;;1.80;0.97;;;13.40;99.90;;;;;;4165393;28;20200;-79
2021/12/31 09:46:50;;;;;;;2.43;0.93;;;13.40;99.90;;;;;;4162903;28;20676;-78
2021/12/31 09:48:52;;;;;;;1.73;1.40;;;13.40;99.90;;;;;;4157696;28;20208;-77
2021/12/31 09:50:56;;;;;;;1.93;1.23;;;13.40;99.90;;;;;;4161128;28;20223;-78
2021/12/31 09:52:59;;;;;;;1.40;0.80;;;13.40;99.90;;;;;;4165508;28;20250;-77
2021/12/31 09:55:01;;;;;;;1.27;0.90;;;13.40;99.90;;;;;;4165732;28;20240;-78
2021/12/31 09:57:04;;;;;;;1.67;0.80;;;13.40;99.90;;;;;;4160292;28;20719;-77
2021/12/31 09:59:06;;;;;;;1.37;0.80;;;13.50;99.90;;;;;;4165583;28;20220;-77
2021/12/31 10:01:09;;;;;;;1.57;0.70;;;13.50;99.90;;;;;;4164610;28;20255;-80
2021/12/31 10:03:12;;;;;;;2.30;1.00;;;13.50;99.90;;;;;;4163369;28;20214;-78
2021/12/31 10:05:14;;;;;;;2.30;1.20;;;13.60;99.90;;;;;;4160928;28;20222;-80
2021/12/31 10:07:20;;;;;;;1.73;0.87;;;13.60;99.90;;;;;;4165659;28;20685;-80
2021/12/31 10:09:22;;;;;;;2.30;0.80;;;13.60;99.90;;;;;;4161575;28;20229;-80
2021/12/31 10:11:25;;;;;;;2.70;1.03;;;13.60;99.90;;;;;;4167534;28;20234;-79
2021/12/31 10:13:28;;;;;;;1.93;0.77;;;13.70;99.90;;;;;;4168547;28;20211;-81
2021/12/31 10:15:39;;;;;;;1.17;0.70;;;13.80;99.90;;;;;;4166181;28;20289;-76
2021/12/31 10:17:41;;;;;;;1.27;0.90;;;13.80;99.90;;;;;;4161853;28;20734;-76
2021/12/31 10:19:56;;;;;;;1.00;0.80;;;13.90;99.90;;;;;;4161571;28;20232;-76
2021/12/31 10:21:58;;;;;;;1.10;0.80;;;13.90;99.90;;;;;;4157189;28;20706;-78
2021/12/31 10:24:00;;;;;;;1.40;0.87;;;13.90;99.90;;;;;;4164287;28;20572;-77
2021/12/31 10:26:09;;;;;;;1.27;0.83;;;14.00;99.90;;;;;;4159946;28;20588;-77
2021/12/31 10:28:13;;;;;;;1.40;0.80;;;14.10;99.90;;;;;;4162170;28;20217;-78
2021/12/31 10:30:22;;;;;;;1.17;0.93;;;14.10;99.90;;;;;;4160800;28;20676;-76
2021/12/31 10:32:28;;;;;;;1.27;0.93;;;14.20;99.90;;;;;;4161499;28;20242;-79
2021/12/31 10:34:31;;;;;;;3.83;1.07;;;14.30;99.90;;;;;;4160048;28;20307;-78
2021/12/31 10:36:35;;;;;;;1.30;0.90;;;14.30;99.90;;;;;;4154986;28;20210;-79
2021/12/31 10:38:39;;;;;;;1.87;0.87;;;14.40;99.90;;;;;;4158233;28;20219;-80
2021/12/31 10:40:43;;;;;;;1.73;0.97;;;14.40;99.90;;;;;;4166292;28;20212;-80